Time;durP1;ratioP1;P1;durP2;ratioP2;P2;SDS_P1;SDS_P2;PMS_P1;PMS_P2;Temp;Humidity;BMP_temperature;BMP_pressure;BME280_temperature;BME280_humidity;BME280_pressure;Samples;Min_cycle;Max_cycle;Signal;HPM_P1;HPM_P2
2022/11/27 00:01:27;;;;;;;85.57;40.88;;;;;;;2.04;94.44;102020.40;1744492;81;25918;-81
2022/11/27 00:03:54;;;;;;;86.82;40.28;;;;;;;2.03;94.43;102024.83;1757400;79;27510;-81
2022/11/27 00:06:25;;;;;;;89.28;42.78;;;;;;;2.02;94.27;102027.58;1765374;79;25879;-81
2022/11/27 00:08:52;;;;;;;94.25;42.93;;;;;;;2.01;94.42;102032.50;1765251;80;25823;-81
2022/11/27 00:11:22;;;;;;;93.97;43.58;;;;;;;2.01;94.55;102032.50;1761630;79;26406;-80
2022/11/27 00:13:49;;;;;;;95.47;43.35;;;;;;;2.06;94.64;102034.36;1758582;80;25845;-81
2022/11/27 00:16:17;;;;;;;95.70;45.05;;;;;;;2.07;94.54;102030.32;1758633;79;27444;-81
2022/11/27 00:18:44;;;;;;;98.12;45.00;;;;;;;2.06;94.41;102029.08;1754618;80;25642;-81
2022/11/27 00:21:16;;;;;;;104.05;45.83;;;;;;;2.04;94.41;102022.58;1754563;80;26553;-82
2022/11/27 00:23:43;;;;;;;93.97;43.33;;;;;;;2.06;94.55;102016.72;1741345;80;26827;-81
2022/11/27 00:26:09;;;;;;;96.42;43.45;;;;;;;2.09;94.57;102013.89;1766043;79;25800;-82
2022/11/27 00:28:37;;;;;;;102.35;47.08;;;;;;;2.09;94.43;102015.68;1756895;79;28343;-81
2022/11/27 00:31:08;;;;;;;96.67;44.03;;;;;;;2.09;94.52;102021.82;1779776;79;25851;-81
2022/11/27 00:33:36;;;;;;;102.53;45.40;;;;;;;2.11;94.54;102013.32;1756999;79;25947;-81
2022/11/27 00:36:04;;;;;;;106.67;47.70;;;;;;;2.13;94.52;102014.53;1756655;80;26903;-81
2022/11/27 00:38:31;;;;;;;91.97;44.10;;;;;;;2.13;94.55;102015.39;1746423;80;26261;-80
2022/11/27 00:41:13;;;;;;;91.22;43.30;;;;;;;2.16;94.59;102010.39;1762289;81;27449;-81
2022/11/27 00:43:39;;;;;;;94.35;45.05;;;;;;;2.17;94.52;102010.28;1746006;80;25983;-81
2022/11/27 00:46:06;;;;;;;95.80;44.65;;;;;;;2.17;94.43;102012.92;1750299;80;25749;-82
2022/11/27 00:48:32;;;;;;;99.35;46.30;;;;;;;2.16;94.26;102012.53;1739204;81;26537;-81
2022/11/27 00:51:01;;;;;;;98.90;45.10;;;;;;;2.14;94.35;102015.75;1739409;81;25885;-81
2022/11/27 00:53:28;;;;;;;99.05;46.00;;;;;;;2.14;94.29;102013.10;1764804;81;27481;-80
2022/11/27 00:55:56;;;;;;;95.47;44.73;;;;;;;2.15;94.45;102009.53;1787280;79;25812;-82
2022/11/27 00:58:23;;;;;;;105.17;46.77;;;;;;;2.17;94.42;102012.92;1781093;80;26509;-81
2022/11/27 01:01:03;;;;;;;105.40;46.83;;;;;;;2.15;94.38;102004.24;1754891;80;26080;-82
2022/11/27 01:03:30;;;;;;;102.97;45.30;;;;;;;2.17;94.40;102008.10;1762771;81;25313;-81
2022/11/27 01:05:56;;;;;;;108.22;49.48;;;;;;;2.15;94.34;102006.03;1749839;79;27522;-81
2022/11/27 01:08:22;;;;;;;117.08;48.48;;;;;;;2.14;94.34;102006.50;1766048;80;25874;-81
2022/11/27 01:10:52;;;;;;;109.57;50.20;;;;;;;2.14;94.46;102005.17;1764179;79;26469;-81
2022/11/27 01:13:21;;;;;;;103.80;47.50;;;;;;;2.16;94.55;102005.09;1771129;79;26080;-81
2022/11/27 01:16:01;;;;;;;107.27;46.42;;;;;;;2.19;94.63;102006.20;1766666;79;25785;-80
2022/11/27 01:18:28;;;;;;;117.80;50.25;;;;;;;2.16;94.42;102004.60;1739717;81;27556;-81
2022/11/27 01:20:55;;;;;;;114.55;48.25;;;;;;;2.17;94.56;102008.10;1746206;80;25820;-82
2022/11/27 01:23:22;;;;;;;115.97;50.15;;;;;;;2.18;94.51;102006.67;1747975;81;25844;-81
2022/11/27 01:25:49;;;;;;;111.03;47.33;;;;;;;2.13;94.24;102006.61;1731318;81;26135;-81
2022/11/27 01:28:16;;;;;;;108.60;47.70;;;;;;;2.10;94.24;102007.64;1760876;79;26496;-81
2022/11/27 01:30:42;;;;;;;113.10;51.30;;;;;;;2.08;94.22;102012.64;1759018;79;28695;-81
2022/11/27 01:33:08;;;;;;;111.12;47.98;;;;;;;2.08;94.41;102013.97;1758370;79;25839;-81
2022/11/27 01:35:34;;;;;;;118.30;51.00;;;;;;;2.07;94.36;102009.64;1763385;79;25798;-80
2022/11/27 01:38:01;;;;;;;107.22;50.17;;;;;;;2.04;94.32;102011.15;1766537;79;26125;-81
2022/11/27 01:40:27;;;;;;;111.47;49.70;;;;;;;2.04;94.42;102015.11;1766220;79;26072;-81
2022/11/27 01:42:53;;;;;;;112.92;50.40;;;;;;;2.01;94.46;102012.69;1766216;79;27438;-81
2022/11/27 01:45:21;;;;;;;106.85;46.80;;;;;;;2.01;94.54;102011.36;1764960;79;25487;-81
2022/11/27 01:47:55;;;;;;;114.00;48.17;;;;;;;2.00;94.56;102018.44;1756780;79;25836;-81
2022/11/27 01:50:29;;;;;;;108.85;49.95;;;;;;;2.01;94.50;102020.11;1756709;79;26283;-81
2022/11/27 01:53:04;;;;;;;106.95;48.52;;;;;;;2.00;94.52;102012.30;1755428;80;25296;-81
2022/11/27 01:55:35;;;;;;;102.60;46.70;;;;;;;2.02;94.72;102022.29;1749825;81;27472;-81
2022/11/27 01:58:16;;;;;;;111.03;49.15;;;;;;;2.06;94.69;102025.11;1755775;80;25697;-81
2022/11/27 02:00:42;;;;;;;;;;;;;;;2.01;94.43;102015.33;1768084;79;25870;-81
2022/11/27 02:03:08;;;;;;;107.30;44.98;;;;;;;1.97;94.39;102016.44;1765789;79;26061;-81
2022/11/27 02:05:35;;;;;;;107.60;47.38;;;;;;;1.90;94.41;102016.01;1761611;79;25312;-82
2022/11/27 02:08:08;;;;;;;107.67;49.00;;;;;;;1.91;94.59;102022.97;1754103;79;27457;-81
2022/11/27 02:11:05;;;;;;;106.72;48.33;;;;;;;1.91;94.78;102015.05;1767547;79;25833;-81
2022/11/27 02:13:52;;;;;;;103.58;48.92;;;;;;;1.94;94.86;102024.58;1741336;81;25760;-81
2022/11/27 02:16:42;;;;;;;93.82;42.65;;;;;;;1.96;94.91;102022.69;1741487;80;26924;-81
2022/11/27 02:19:26;;;;;;;111.97;49.58;;;;;;;1.98;94.84;102020.33;1742727;81;26493;-81
2022/11/27 02:22:10;;;;;;;110.12;47.23;;;;;;;1.95;94.81;102020.97;1750205;81;27481;-81
2022/11/27 02:25:11;;;;;;;105.83;47.65;;;;;;;1.96;94.92;102032.79;1765241;79;25892;-81
2022/11/27 02:28:23;;;;;;;100.75;45.35;;;;;;;1.99;94.89;102030.44;1746873;80;25916;-81
2022/11/27 02:30:55;;;;;;;115.80;49.58;;;;;;;1.98;94.80;102026.94;1761467;79;25616;-81
2022/11/27 02:33:23;;;;;;;107.12;47.90;;;;;;;1.96;94.92;102024.86;1764987;79;26447;-81
2022/11/27 02:36:04;;;;;;;103.90;47.73;;;;;;;1.99;94.96;102026.47;1767623;79;28668;-82
2022/11/27 02:38:33;;;;;;;;;;;;;;;1.99;94.90;102022.50;1769457;79;26383;-81
2022/11/27 02:41:14;;;;;;;108.80;45.88;;;;;;;1.98;94.87;102028.26;1768016;79;25874;-81
2022/11/27 02:43:49;;;;;;;98.27;44.65;;;;;;;1.97;95.03;102034.94;1769718;80;26587;-82
2022/11/27 02:46:17;;;;;;;110.75;48.25;;;;;;;1.99;95.13;102024.65;1755054;81;25887;-82
2022/11/27 02:48:51;;;;;;;106.75;47.98;;;;;;;2.02;95.18;102023.61;1731869;81;27476;-81
2022/11/27 02:51:22;;;;;;;104.87;47.30;;;;;;;2.05;95.20;102024.75;1778094;79;25820;-81
2022/11/27 02:53:59;;;;;;;103.00;45.67;;;;;;;2.05;95.01;102022.94;1746419;80;25889;-81
2022/11/27 02:56:29;;;;;;;102.62;47.05;;;;;;;2.07;94.98;102026.82;1750702;80;26074;-81
2022/11/27 02:59:00;;;;;;;104.07;45.78;;;;;;;2.09;95.05;102028.89;1742275;81;25810;-81
2022/11/27 03:01:31;;;;;;;98.62;44.48;;;;;;;2.10;95.01;102025.28;1731859;81;27475;-81
2022/11/27 03:04:01;;;;;;;106.07;47.93;;;;;;;2.10;94.87;102031.89;1724926;81;25373;-81
2022/11/27 03:06:54;;;;;;;111.37;47.67;;;;;;;2.09;94.86;102027.57;1745937;81;25891;-81
2022/11/27 03:09:37;;;;;;;100.45;43.98;;;;;;;2.12;94.97;102036.61;1744183;80;26356;-80
2022/11/27 03:12:06;;;;;;;104.35;47.25;;;;;;;2.12;94.98;102037.47;1781699;79;25744;-80
2022/11/27 03:14:34;;;;;;;107.72;45.63;;;;;;;2.09;94.80;102042.11;1768154;79;27471;-80
2022/11/27 03:17:41;;;;;;;104.40;48.17;;;;;;;2.07;94.85;102042.22;1777992;79;25889;-80
2022/11/27 03:20:28;;;;;;;110.75;46.92;;;;;;;2.09;94.95;102040.78;1735332;80;25322;-80
2022/11/27 03:22:55;;;;;;;109.10;47.93;;;;;;;2.12;95.15;102046.72;1758204;79;26550;-80
2022/11/27 03:25:23;;;;;;;108.30;48.80;;;;;;;2.16;95.20;102042.11;1781618;79;26126;-80
2022/11/27 03:27:57;;;;;;;102.05;47.13;;;;;;;2.19;95.24;102044.06;1768363;79;27454;-80
2022/11/27 03:30:24;;;;;;;107.03;47.75;;;;;;;2.21;95.12;102042.64;1773091;79;25884;-80
2022/11/27 03:32:50;;;;;;;104.67;48.17;;;;;;;2.22;95.22;102039.06;1772790;79;26519;-81
2022/11/27 03:35:21;;;;;;;99.00;49.60;;;;;;;2.25;95.26;102039.70;1775651;79;27236;-80
2022/11/27 03:37:48;;;;;;;109.83;47.70;;;;;;;2.24;95.11;102040.67;1747622;79;25855;-80
2022/11/27 03:40:16;;;;;;;102.60;46.75;;;;;;;2.26;95.16;102037.45;1758577;79;27451;-80
2022/11/27 03:43:09;;;;;;;105.25;47.43;;;;;;;2.28;95.22;102039.52;1770675;80;25841;-80
2022/11/27 03:45:58;;;;;;;112.85;48.05;;;;;;;2.31;95.06;102038.45;1773716;79;25868;-80
2022/11/27 03:48:36;;;;;;;105.07;47.15;;;;;;;2.30;95.02;102040.27;1763892;79;26170;-80
2022/11/27 03:51:19;;;;;;;104.65;47.38;;;;;;;2.32;95.11;102043.66;1775368;79;25776;-80
2022/11/27 03:54:24;;;;;;;107.05;47.73;;;;;;;2.33;95.08;102043.20;1761016;79;28360;-80
2022/11/27 03:57:21;;;;;;;116.82;48.98;;;;;;;2.34;95.15;102035.16;1741158;80;25934;-80
2022/11/27 03:59:50;;;;;;;106.85;48.68;;;;;;;2.36;95.11;102032.40;1748582;81;25939;-80
2022/11/27 04:02:22;;;;;;;109.03;49.50;;;;;;;2.36;95.13;102027.11;1756470;79;27255;-80
2022/11/27 04:04:49;;;;;;;105.97;47.13;;;;;;;2.38;95.11;102027.00;1731329;80;25752;-80
2022/11/27 04:07:16;;;;;;;104.00;46.15;;;;;;;2.37;95.01;102026.17;1728189;81;27454;-80
2022/11/27 04:09:42;;;;;;;101.47;47.98;;;;;;;2.38;95.09;102023.89;1750886;81;25818;-80
2022/11/27 04:12:09;;;;;;;111.95;48.85;;;;;;;2.40;95.19;102029.92;1747721;80;25947;-80
2022/11/27 04:14:35;;;;;;;106.72;47.00;;;;;;;2.43;95.23;102029.74;1740572;81;26089;-80
2022/11/27 04:17:01;;;;;;;99.87;47.10;;;;;;;2.45;95.13;102025.20;1768069;79;25810;-81
2022/11/27 04:19:27;;;;;;;94.65;44.98;;;;;;;2.47;95.11;102024.62;1804426;78;27475;-80
2022/11/27 04:21:54;;;;;;;103.58;46.02;;;;;;;2.50;95.14;102026.23;1815390;78;26575;-81
2022/11/27 04:24:20;;;;;;;105.70;46.70;;;;;;;2.51;95.19;102023.47;1803325;78;25803;-80
2022/11/27 04:26:47;;;;;;;99.42;45.83;;;;;;;2.54;95.13;102019.78;1804401;78;26058;-80
2022/11/27 04:29:13;;;;;;;99.32;45.73;;;;;;;2.56;95.11;102017.88;1813383;78;26102;-80
2022/11/27 04:31:39;;;;;;;104.15;46.25;;;;;;;2.56;95.10;102017.41;1812788;78;27434;-80
2022/11/27 04:34:05;;;;;;;98.00;45.85;;;;;;;2.57;94.97;102019.56;1790548;78;25821;-80
2022/11/27 04:36:32;;;;;;;104.32;48.50;;;;;;;2.57;95.04;102015.12;1810800;78;25784;-80
2022/11/27 04:38:58;;;;;;;105.20;47.85;;;;;;;2.59;95.00;102016.37;1811396;78;26430;-79
2022/11/27 04:41:24;;;;;;;107.65;49.20;;;;;;;2.59;95.05;102022.98;1804636;78;25989;-80
2022/11/27 04:43:50;;;;;;;104.15;47.90;;;;;;;2.60;95.11;102018.05;1814164;78;27429;-80
2022/11/27 04:46:17;;;;;;;97.00;44.55;;;;;;;2.62;95.05;102017.47;1792470;78;25958;-80
2022/11/27 04:48:43;;;;;;;103.42;46.37;;;;;;;2.61;94.98;102018.44;1770101;80;26619;-80
2022/11/27 04:51:09;;;;;;;105.32;48.52;;;;;;;2.62;95.04;102012.18;1786249;78;26820;-81
2022/11/27 04:53:36;;;;;;;98.10;45.45;;;;;;;2.63;94.97;102021.33;1799053;78;25841;-79
2022/11/27 04:56:03;;;;;;;101.25;47.05;;;;;;;2.64;95.06;102022.19;1807259;78;28269;-83
2022/11/27 04:58:29;;;;;;;103.90;47.15;;;;;;;2.62;95.03;102022.30;1804328;78;25787;-79
2022/11/27 05:00:55;;;;;;;103.42;45.35;;;;;;;2.64;95.07;102016.89;1800727;78;26517;-79
2022/11/27 05:03:24;;;;;;;103.55;47.43;;;;;;;2.66;95.13;102022.92;1799549;78;26085;-80
2022/11/27 05:05:57;;;;;;;101.35;45.15;;;;;;;2.66;95.05;102021.61;1814706;78;25931;-79
2022/11/27 05:08:24;;;;;;;100.35;47.48;;;;;;;2.66;95.11;102022.92;1759423;79;27631;-79
2022/11/27 05:11:07;;;;;;;96.67;44.27;;;;;;;2.68;95.04;102026.31;1758448;79;25780;-80
2022/11/27 05:13:34;;;;;;;96.78;45.05;;;;;;;2.69;95.03;102030.67;1733483;81;25309;-79
2022/11/27 05:16:01;;;;;;;104.17;47.15;;;;;;;2.67;94.97;102026.81;1766405;79;26089;-79
2022/11/27 05:18:27;;;;;;;108.90;47.45;;;;;;;2.66;94.88;102033.52;1766870;79;26536;-79
2022/11/27 05:20:58;;;;;;;102.30;47.55;;;;;;;2.64;94.96;102033.62;1741099;81;27468;-79
2022/11/27 05:23:26;;;;;;;103.95;47.62;;;;;;;2.65;95.03;102040.59;1759246;80;25287;-79
2022/11/27 05:25:52;;;;;;;104.27;46.23;;;;;;;2.66;95.13;102034.83;1737744;80;25817;-79
2022/11/27 05:28:20;;;;;;;101.67;45.38;;;;;;;2.65;95.10;102031.33;1736154;81;26129;-79
2022/11/27 05:30:47;;;;;;;100.38;44.83;;;;;;;2.67;95.19;102029.46;1747903;80;26033;-79
2022/11/27 05:33:16;;;;;;;105.32;45.65;;;;;;;2.69;95.18;102026.70;1766168;79;27476;-80
2022/11/27 05:35:44;;;;;;;103.55;45.52;;;;;;;2.70;95.32;102025.27;1746519;80;26015;-80
2022/11/27 05:38:11;;;;;;;111.30;48.48;;;;;;;2.71;95.27;102024.34;1736158;81;25853;-79
2022/11/27 05:40:38;;;;;;;103.40;44.75;;;;;;;2.71;95.12;102024.34;1748748;80;26039;-79
2022/11/27 05:43:05;;;;;;;107.12;47.23;;;;;;;2.70;95.17;102022.63;1735098;81;26486;-79
2022/11/27 05:45:31;;;;;;;105.45;48.83;;;;;;;2.71;95.23;102014.22;1764301;79;27444;-79
2022/11/27 05:47:57;;;;;;;115.00;49.38;;;;;;;2.71;95.22;102018.19;1760507;81;26557;-79
2022/11/27 05:50:23;;;;;;;103.65;47.83;;;;;;;2.71;95.25;102016.41;1733368;82;25801;-79
2022/11/27 05:52:50;;;;;;;111.55;46.10;;;;;;;2.73;95.33;102018.47;1735208;81;26896;-80
2022/11/27 05:55:17;;;;;;;105.30;46.55;;;;;;;2.73;95.25;102018.47;1767158;79;25710;-80
2022/11/27 05:57:43;;;;;;;105.03;47.05;;;;;;;2.73;95.21;102018.47;1746166;80;27437;-79
2022/11/27 06:00:11;;;;;;;107.45;47.08;;;;;;;2.72;95.18;102019.41;1733545;81;25854;-79
2022/11/27 06:02:37;;;;;;;112.85;47.50;;;;;;;2.73;95.23;102014.97;1746469;80;25800;-79
2022/11/27 06:05:05;;;;;;;107.65;47.08;;;;;;;2.75;95.38;102021.00;1746288;80;26087;-79
2022/11/27 06:07:32;;;;;;;101.75;46.23;;;;;;;2.73;95.29;102015.83;1767566;79;26450;-80
2022/11/27 06:09:58;;;;;;;102.70;45.90;;;;;;;2.76;95.45;102014.78;1742206;80;27460;-80
2022/11/27 06:12:24;;;;;;;104.85;45.98;;;;;;;2.79;95.52;102005.30;1738168;80;25878;-79
2022/11/27 06:14:50;;;;;;;110.92;47.53;;;;;;;2.79;95.37;101998.68;1737227;80;26186;-81
2022/11/27 06:17:17;;;;;;;110.42;48.75;;;;;;;2.78;95.32;101997.83;1765902;79;26542;-79
2022/11/27 06:19:43;;;;;;;107.07;46.37;;;;;;;2.80;95.39;101999.89;1746583;81;26409;-79
2022/11/27 06:22:09;;;;;;;103.17;46.35;;;;;;;2.79;95.21;102007.94;1731312;82;27448;-79
2022/11/27 06:24:36;;;;;;;108.85;47.43;;;;;;;2.79;95.28;101998.68;1747201;81;26457;-79
2022/11/27 06:27:02;;;;;;;102.85;46.70;;;;;;;2.78;95.31;102003.11;1762770;79;26415;-79
2022/11/27 06:29:29;;;;;;;100.18;46.10;;;;;;;2.81;95.36;102007.36;1757482;79;26247;-79
2022/11/27 06:31:55;;;;;;;105.78;47.83;;;;;;;2.82;95.32;102006.42;1761076;79;26392;-79
2022/11/27 06:34:21;;;;;;;102.07;45.15;;;;;;;2.80;95.23;102007.00;1763489;79;28559;-79
2022/11/27 06:36:49;;;;;;;105.95;45.75;;;;;;;2.81;95.38;102010.00;1761079;79;25940;-79
2022/11/27 06:39:16;;;;;;;98.22;45.50;;;;;;;2.83;95.40;102007.63;1757795;79;25999;-80
2022/11/27 06:41:42;;;;;;;104.07;44.67;;;;;;;2.83;95.41;102006.31;1760904;81;26084;-79
2022/11/27 06:44:09;;;;;;;102.30;45.65;;;;;;;2.85;95.42;102005.73;1744470;81;26448;-80
2022/11/27 06:46:36;;;;;;;97.62;45.83;;;;;;;2.86;95.46;102008.77;1777626;79;27472;-79
2022/11/27 06:49:02;;;;;;;93.00;42.75;;;;;;;2.88;95.44;102001.57;1751355;80;25633;-80
2022/11/27 06:51:31;;;;;;;106.83;43.92;;;;;;;2.91;95.47;102003.98;1765406;79;25992;-79
2022/11/27 06:54:00;;;;;;;98.33;44.80;;;;;;;2.92;95.40;102001.73;1765033;79;27339;-79
2022/11/27 06:56:29;;;;;;;96.30;44.10;;;;;;;2.93;95.34;102003.41;1768495;79;25564;-81
2022/11/27 06:58:59;;;;;;;100.55;45.12;;;;;;;2.94;95.24;102004.27;1736605;81;27637;-81
2022/11/27 07:01:28;;;;;;;95.57;44.03;;;;;;;2.95;95.23;101998.86;1744988;80;26511;-81
2022/11/27 07:03:55;;;;;;;104.92;44.60;;;;;;;2.96;95.15;101997.06;1764357;79;25819;-82
2022/11/27 07:06:24;;;;;;;97.92;44.70;;;;;;;2.93;95.04;101994.14;1765496;79;26563;-81
2022/11/27 07:08:51;;;;;;;89.92;41.18;;;;;;;2.94;95.23;101993.20;1764786;79;25814;-82
2022/11/27 07:11:21;;;;;;;92.97;42.40;;;;;;;2.95;95.34;101986.13;1737561;81;28339;-82
2022/11/27 07:13:50;;;;;;;93.90;43.30;;;;;;;2.97;95.39;101990.33;1756809;79;25713;-82
2022/11/27 07:16:17;;;;;;;95.25;44.33;;;;;;;2.97;95.36;101994.80;1738718;80;25843;-82
2022/11/27 07:18:48;;;;;;;102.42;45.20;;;;;;;2.98;95.43;102000.45;1741642;81;26845;-82
2022/11/27 07:21:14;;;;;;;91.40;42.58;;;;;;;3.00;95.52;102001.20;1735539;81;25934;-82
2022/11/27 07:23:41;;;;;;;98.50;45.30;;;;;;;3.00;95.58;101994.11;1776935;79;27444;-81
2022/11/27 07:26:11;;;;;;;98.10;44.90;;;;;;;3.04;95.57;101998.70;1759015;79;25853;-81
2022/11/27 07:28:38;;;;;;;96.70;47.90;;;;;;;3.05;95.54;101995.13;1763184;79;25853;-81
2022/11/27 07:31:05;;;;;;;90.75;43.65;;;;;;;3.05;95.40;101995.13;1778540;79;26949;-82
2022/11/27 07:33:31;;;;;;;95.83;44.93;;;;;;;3.05;95.56;101998.63;1768528;79;25523;-81
2022/11/27 07:36:05;;;;;;;99.07;45.90;;;;;;;3.10;95.93;102005.76;1769904;79;27520;-82
2022/11/27 07:38:32;;;;;;;105.03;46.75;;;;;;;3.18;96.82;102004.39;1769747;79;25921;-82
2022/11/27 07:41:00;;;;;;;103.10;47.03;;;;;;;3.23;96.36;102004.94;1770211;79;25781;-82
2022/11/27 07:43:28;;;;;;;184.35;91.80;;;;;;;3.26;96.07;102008.68;1763643;79;26077;-82
2022/11/27 07:45:54;;;;;;;171.62;87.95;;;;;;;3.27;96.03;102004.62;1760952;79;25670;-82
2022/11/27 07:48:20;;;;;;;175.40;88.90;;;;;;;3.30;95.95;102008.83;1770679;79;28271;-81
2022/11/27 07:50:47;;;;;;;251.10;116.03;;;;;;;3.31;95.82;102014.52;1747789;81;26328;-82
2022/11/27 07:53:13;;;;;;;184.45;85.05;;;;;;;3.28;95.70;102010.75;1764808;79;25656;-82
2022/11/27 07:55:41;;;;;;;225.90;110.70;;;;;;;3.29;95.86;102014.63;1774499;79;26470;-82
2022/11/27 07:58:08;;;;;;;174.27;84.37;;;;;;;3.31;95.96;102012.72;1743649;81;25705;-80
2022/11/27 08:00:35;;;;;;;127.45;65.97;;;;;;;3.31;95.93;102005.25;1730985;81;27524;-90
2022/11/27 08:03:18;;;;;;;;;;;;;;;;;;;;;
2022/11/27 08:06:07;;;;;;;;;;;;;;;;;;;;;
2022/11/27 08:09:02;;;;;;;;;;;;;;;;;;;;;
2022/11/27 08:11:32;;;;;;;95.12;46.10;;;;;;;3.36;95.99;102024.33;1538799;90;25683;-95
2022/11/27 08:14:05;;;;;;;116.55;55.43;;;;;;;3.34;96.05;102014.29;1626153;83;25930;-82
2022/11/27 08:16:34;;;;;;;127.17;63.30;;;;;;;3.33;96.15;102009.96;1676110;83;26418;-80
2022/11/27 08:19:01;;;;;;;105.32;48.68;;;;;;;3.32;96.17;102007.78;1756623;79;25806;-82
2022/11/27 08:21:29;;;;;;;101.07;47.95;;;;;;;3.35;96.45;102008.91;1771499;79;26290;-82
2022/11/27 08:23:56;;;;;;;92.50;45.92;;;;;;;3.35;96.31;102004.94;1707838;82;25977;-82
2022/11/27 08:26:26;;;;;;;97.78;46.88;;;;;;;3.36;96.37;102001.82;1765246;81;28295;-82
2022/11/27 08:28:52;;;;;;;91.25;44.75;;;;;;;3.37;96.39;101997.73;1759791;81;25821;-87
2022/11/27 08:31:19;;;;;;;93.35;44.45;;;;;;;3.38;96.54;102002.55;1760443;81;25738;-85
2022/11/27 08:33:46;;;;;;;93.58;46.10;;;;;;;3.42;96.58;102008.01;1764784;80;26059;-85
2022/11/27 08:36:12;;;;;;;103.15;46.70;;;;;;;3.45;96.72;102007.30;1756016;81;25929;-84
2022/11/27 08:38:38;;;;;;;100.42;45.88;;;;;;;3.50;96.89;102013.14;1770439;80;27454;-82
2022/11/27 08:41:07;;;;;;;101.58;51.15;;;;;;;3.52;96.75;102009.05;1793751;78;25929;-82
2022/11/27 08:43:34;;;;;;;102.87;46.33;;;;;;;3.55;96.86;102011.00;1795236;78;26138;-85
2022/11/27 08:46:04;;;;;;;95.53;45.58;;;;;;;3.58;96.72;102011.27;1799128;78;26076;-79
2022/11/27 08:48:31;;;;;;;87.22;44.53;;;;;;;3.58;96.63;102012.59;1811062;78;26520;-85
2022/11/27 08:50:57;;;;;;;100.05;47.98;;;;;;;3.59;96.73;102009.00;1813345;78;27453;-84
2022/11/27 08:53:23;;;;;;;96.57;47.93;;;;;;;3.62;96.90;102012.27;1802492;78;25364;-84
2022/11/27 08:55:50;;;;;;;99.65;48.20;;;;;;;3.67;96.92;102011.95;1791075;78;25970;-81
2022/11/27 08:58:16;;;;;;;93.20;46.68;;;;;;;3.69;96.87;102012.69;1768563;79;26917;-80
2022/11/27 09:00:42;;;;;;;92.20;45.48;;;;;;;3.73;97.09;102016.34;1766995;79;25777;-80
2022/11/27 09:03:11;;;;;;;103.05;48.90;;;;;;;3.79;97.15;102015.05;1755864;79;27449;-80
2022/11/27 09:05:43;;;;;;;90.85;44.27;;;;;;;3.82;97.11;102021.00;1769395;79;25853;-81
2022/11/27 09:08:15;;;;;;;94.55;45.15;;;;;;;3.85;97.02;102022.56;1785105;79;26096;-85
2022/11/27 09:10:39;;;;;;;94.07;47.62;;;;;;;3.88;96.85;102023.20;1777207;79;27099;-88
2022/11/27 09:13:06;;;;;;;91.53;45.55;;;;;;;3.91;96.98;102027.45;1770127;79;25888;-86
2022/11/27 09:15:32;;;;;;;87.17;46.00;;;;;;;3.91;96.75;102025.63;1771501;79;27645;-85
2022/11/27 09:17:58;;;;;;;88.58;44.67;;;;;;;3.91;96.70;102024.30;1773880;79;26152;-85
2022/11/27 09:20:25;;;;;;;101.65;46.98;;;;;;;3.95;96.93;102022.77;1733118;81;25834;-85
2022/11/27 09:22:51;;;;;;;104.53;52.93;;;;;;;4.00;97.09;102024.62;1732311;81;26424;-84
2022/11/27 09:25:18;;;;;;;93.75;47.88;;;;;;;4.03;96.99;102025.70;1740321;81;25834;-87
2022/11/27 09:27:44;;;;;;;93.67;45.78;;;;;;;4.03;96.84;102029.69;1757379;80;27482;-84
2022/11/27 09:30:12;;;;;;;87.72;45.12;;;;;;;4.02;96.81;102030.66;1774201;80;26349;-91
2022/11/27 09:32:39;;;;;;;93.42;45.85;;;;;;;4.04;96.86;102026.09;1755065;80;25788;-88
2022/11/27 09:35:06;;;;;;;96.00;45.45;;;;;;;4.07;96.86;102024.52;1757245;80;26069;-88
2022/11/27 09:37:32;;;;;;;109.00;57.10;;;;;;;4.07;96.67;102029.36;1752040;80;25759;-86
2022/11/27 09:39:58;;;;;;;103.00;49.73;;;;;;;4.05;96.76;102027.77;1753173;80;27736;-80
2022/11/27 09:42:45;;;;;;;94.67;47.58;;;;;;;4.08;96.77;102026.23;1757540;80;26120;-80
2022/11/27 09:45:15;;;;;;;124.33;58.23;;;;;;;4.08;96.76;102010.33;1725374;81;25984;-79
2022/11/27 09:48:00;;;;;;;108.63;53.92;;;;;;;4.10;96.88;102019.87;1747583;80;26152;-79
2022/11/27 09:50:34;;;;;;;89.55;44.88;;;;;;;4.16;97.04;102023.40;1771064;79;25912;-79
2022/11/27 09:53:21;;;;;;;97.53;46.30;;;;;;;4.20;97.01;102024.87;1740531;81;27471;-89
2022/11/27 09:55:51;;;;;;;96.75;49.08;;;;;;;4.23;96.89;102018.50;1741092;80;26426;-79
2022/11/27 09:58:37;;;;;;;92.53;46.50;;;;;;;4.26;97.12;102021.77;1760297;79;25323;-87
2022/11/27 10:01:16;;;;;;;93.87;46.88;;;;;;;4.29;97.14;102017.58;1766882;79;26540;-88
2022/11/27 10:03:45;;;;;;;91.80;47.48;;;;;;;4.30;96.97;102019.75;1746884;79;25840;-88
2022/11/27 10:06:47;;;;;;;99.75;46.80;;;;;;;4.30;96.84;102013.95;1773416;79;28259;-86
2022/11/27 10:09:46;;;;;;;119.85;59.73;;;;;;;4.31;96.73;102006.84;1695340;83;25838;-87
2022/11/27 10:12:31;;;;;;;109.32;53.80;;;;;;;4.27;96.49;102010.68;1735100;79;25638;-80
2022/11/27 10:15:21;;;;;;;125.92;61.45;;;;;;;4.26;96.64;102004.52;1780377;79;26146;-84
2022/11/27 10:18:01;;;;;;;125.02;61.90;;;;;;;4.27;96.83;102006.23;1619642;86;26402;-83
2022/11/27 10:20:45;;;;;;;110.50;56.45;;;;;;;4.31;97.05;102005.05;1723928;81;27464;-79
2022/11/27 10:23:47;;;;;;;126.92;66.67;;;;;;;4.34;97.15;102000.83;1723199;79;26495;-91
2022/11/27 10:26:34;;;;;;;119.08;61.63;;;;;;;4.37;97.05;102000.61;1722501;81;25841;-79
2022/11/27 10:29:37;;;;;;;109.83;53.80;;;;;;;4.38;97.03;101991.70;1748218;80;26870;-89
2022/11/27 10:32:22;;;;;;;127.05;60.10;;;;;;;4.40;97.16;101988.45;1730600;81;26485;-83
2022/11/27 10:35:00;;;;;;;123.33;66.57;;;;;;;4.40;97.46;101984.48;1741814;80;27456;-86
2022/11/27 10:37:52;;;;;;;118.15;64.15;;;;;;;4.48;97.76;101982.56;1753280;79;25914;-86
2022/11/27 10:40:54;;;;;;;113.20;55.63;;;;;;;4.53;97.62;101985.23;1742145;81;25293;-86
2022/11/27 10:43:23;;;;;;;183.20;100.70;;;;;;;4.58;97.55;101985.75;1772226;79;26174;-82
2022/11/27 10:46:14;;;;;;;167.15;94.03;;;;;;;4.64;97.40;101980.48;1770548;79;26207;-82
2022/11/27 10:48:41;;;;;;;112.62;66.42;;;;;;;4.66;97.16;101987.84;1748442;79;27453;-84
2022/11/27 10:51:34;;;;;;;102.90;58.50;;;;;;;4.66;96.94;101978.05;1757381;79;25922;-81
2022/11/27 10:54:04;;;;;;;89.20;48.15;;;;;;;4.66;96.75;101978.56;1757060;79;25318;-87
2022/11/27 10:56:45;;;;;;;97.75;50.40;;;;;;;4.66;96.73;101970.09;1762915;81;26420;-81
2022/11/27 10:59:25;;;;;;;91.53;46.90;;;;;;;4.65;96.64;101976.84;1761554;79;25820;-83
2022/11/27 11:01:52;;;;;;;84.20;45.30;;;;;;;4.66;96.70;101964.78;1758708;79;27466;-82
2022/11/27 11:04:29;;;;;;;104.12;53.52;;;;;;;4.69;96.95;101964.56;1761676;79;25748;-83
2022/11/27 11:06:56;;;;;;;88.55;47.40;;;;;;;4.72;97.00;101958.66;1733242;81;25876;-80
2022/11/27 11:09:28;;;;;;;93.12;46.30;;;;;;;4.77;97.06;101956.52;1742919;80;26607;-84
2022/11/27 11:12:19;;;;;;;92.53;47.75;;;;;;;4.77;96.69;101957.33;1741901;80;26447;-83
2022/11/27 11:14:58;;;;;;;83.30;43.78;;;;;;;4.76;96.63;101958.78;1769138;79;27052;-87
2022/11/27 11:17:36;;;;;;;79.15;43.60;;;;;;;4.76;96.63;101959.64;1759754;79;25832;-80
2022/11/27 11:20:21;;;;;;;80.87;44.73;;;;;;;4.76;96.65;101963.62;1770427;79;25296;-81
2022/11/27 11:22:49;;;;;;;87.65;46.35;;;;;;;4.80;96.94;101966.41;1744197;80;26066;-86
2022/11/27 11:25:20;;;;;;;85.67;45.55;;;;;;;4.80;96.69;101977.02;1777712;79;25559;-82
2022/11/27 11:27:50;;;;;;;82.67;44.48;;;;;;;4.82;96.85;101972.44;1742209;81;27478;-85
2022/11/27 11:30:28;;;;;;;84.32;42.15;;;;;;;4.84;96.75;101964.35;1747202;80;26099;-86
2022/11/27 11:33:02;;;;;;;84.40;43.15;;;;;;;4.85;96.55;101968.24;1734530;81;26340;-82
2022/11/27 11:35:35;;;;;;;85.50;44.27;;;;;;;4.88;96.70;101959.17;1740171;80;26064;-87
2022/11/27 11:38:06;;;;;;;131.47;65.90;;;;;;;4.92;97.02;101953.51;1742598;80;25288;-86